createdAt,value
2018-06-02T15:04:00.713Z,55.85
2018-06-02T15:05:00.641Z,56.40
2018-06-02T15:06:00.615Z,57.07
2018-06-02T15:09:16.368Z,51.48
2018-06-02T15:10:16.307Z,53.25
2018-06-02T15:14:14.649Z,56.04
2018-06-02T15:15:14.534Z,57.68
2018-06-02T15:16:14.497Z,58.55
2018-06-02T15:17:14.470Z,66.27
2018-06-02T15:18:14.435Z,62.70
2018-06-02T15:19:14.420Z,68.39
2018-06-02T15:20:14.407Z,64.79
2018-06-02T15:21:14.339Z,63.24
2018-06-02T15:22:14.313Z,63.44
2018-06-02T15:23:14.284Z,59.48
2018-06-02T15:24:14.254Z,59.00
2018-06-02T15:25:14.229Z,62.86
2018-06-02T15:26:14.199Z,61.41
2018-06-02T15:27:14.164Z,59.68
2018-06-02T15:28:14.129Z,59.68
2018-06-02T15:29:14.099Z,61.41
2018-06-02T15:30:14.071Z,58.91
2018-06-02T15:31:14.042Z,62.09
2018-06-02T15:32:14.016Z,59.87
2018-06-02T15:33:13.982Z,61.80
2018-06-02T15:34:13.952Z,64.11
2018-06-02T15:35:13.940Z,62.48
2018-06-02T15:36:13.888Z,62.57
2018-06-02T15:37:13.865Z,62.48
2018-06-02T15:38:13.857Z,60.80
2018-06-02T15:39:13.800Z,61.19
2018-06-02T15:40:13.769Z,59.84
2018-06-02T15:41:13.737Z,57.72
2018-06-02T15:42:13.766Z,55.31
2018-06-02T15:43:13.706Z,50.69
2018-06-02T15:44:13.656Z,48.38
2018-06-02T15:45:13.642Z,47.41
2018-06-02T15:46:13.603Z,45.48
2018-06-02T15:47:13.560Z,42.28
2018-06-02T15:48:13.577Z,42.19
2018-06-02T15:49:13.504Z,37.66
2018-06-02T15:50:13.471Z,40.45
2018-06-02T15:51:13.444Z,38.93
2018-06-02T15:52:13.427Z,39.61
2018-06-02T15:53:13.378Z,41.41
2018-06-02T15:54:13.355Z,34.77
2018-06-02T15:55:13.323Z,36.02
2018-06-02T15:56:13.302Z,35.73
2018-06-02T15:57:13.264Z,34.58
2018-06-02T15:58:13.233Z,33.03
2018-06-02T15:59:13.204Z,32.84
2018-06-02T16:00:13.169Z,30.63
2018-06-02T16:01:13.149Z,28.51
2018-06-02T16:02:13.108Z,28.31
2018-06-02T16:03:13.083Z,27.55
2018-06-02T16:04:13.054Z,28.03
2018-06-02T16:05:13.023Z,26.58
2018-06-02T16:06:12.991Z,27.26
2018-06-02T16:07:12.964Z,23.98
2018-06-02T16:08:12.927Z,23.60
2018-06-02T16:09:12.905Z,23.60
2018-06-02T16:10:12.871Z,24.18
2018-06-02T16:11:12.839Z,26.39
2018-06-02T16:12:12.809Z,29.95
2018-06-02T16:13:12.775Z,26.79
2018-06-02T16:14:12.750Z,28.22
2018-06-02T16:15:12.730Z,24.18
2018-06-02T16:16:12.695Z,28.31
2018-06-02T16:17:12.660Z,27.64
2018-06-02T16:18:12.633Z,28.80
2018-06-02T16:19:12.595Z,27.64
2018-06-02T16:20:12.564Z,26.87
2018-06-02T16:21:12.553Z,28.03
2018-06-02T16:22:12.506Z,24.46
2018-06-02T16:23:12.481Z,23.49
2018-06-02T16:24:12.449Z,20.60
2018-06-02T16:25:12.411Z,18.29
2018-06-02T16:26:12.389Z,15.88
2018-06-02T16:27:12.358Z,21.08
2018-06-02T16:28:12.330Z,22.81
2018-06-02T16:29:12.299Z,20.61
2018-06-02T16:30:12.267Z,20.79
2018-06-02T16:32:44.306Z,28.13
2018-06-02T16:33:44.260Z,22.44
2018-06-02T16:34:44.212Z,21.75
2018-06-02T16:35:44.183Z,18.88
2018-06-02T16:36:44.150Z,20.13
2018-06-02T16:37:44.117Z,23.10
2018-06-02T16:38:44.083Z,22.83
2018-06-02T16:39:44.063Z,20.42
2018-06-02T16:40:44.028Z,21.00
2018-06-02T16:41:43.994Z,21.48
2018-06-02T16:42:43.962Z,23.79
2018-06-02T16:43:43.932Z,22.43
2018-06-02T16:44:43.907Z,22.24
2018-06-02T16:45:43.878Z,20.40
2018-06-02T16:46:43.847Z,18.10
2018-06-02T16:47:43.820Z,16.56
2018-06-02T16:48:43.786Z,18.68
2018-06-02T16:49:43.752Z,19.06
2018-06-02T16:50:43.722Z,21.08
2018-06-02T16:51:43.701Z,21.56
2018-06-02T16:52:43.693Z,18.68
2018-06-02T16:53:43.639Z,15.11
2018-06-02T16:54:43.604Z,19.35
2018-06-02T16:55:43.568Z,19.54
2018-06-02T16:56:43.539Z,21.85
2018-06-02T16:57:43.528Z,20.40
2018-06-02T16:58:43.481Z,20.23
2018-06-02T16:59:43.452Z,22.24
2018-06-02T17:00:43.451Z,22.62
2018-06-02T17:01:43.452Z,23.40
2018-06-02T17:02:43.355Z,21.47
2018-06-02T17:03:43.346Z,21.56
2018-06-02T17:04:43.296Z,21.56
2018-06-02T17:05:43.269Z,21.85
2018-06-02T17:06:43.239Z,23.30
2018-06-02T17:07:43.240Z,21.47
2018-06-02T17:08:43.201Z,25.70
2018-06-02T17:09:43.145Z,25.90
2018-06-02T17:10:43.111Z,27.62
2018-06-02T17:11:43.086Z,24.26
2018-06-02T17:12:43.056Z,27.05
2018-06-02T17:13:43.021Z,26.28
2018-06-02T17:14:42.992Z,25.02
2018-06-02T17:15:42.960Z,24.74
2018-06-02T17:16:42.930Z,22.61
2018-06-02T17:17:42.910Z,22.81
2018-06-02T17:18:42.876Z,21.75
2018-06-02T17:19:42.842Z,22.91
2018-06-02T17:20:42.813Z,22.52
2018-06-02T17:21:42.777Z,24.74
2018-06-02T17:22:42.747Z,22.42
2018-06-02T17:23:42.742Z,21.26
2018-06-02T17:24:42.690Z,19.05
2018-06-02T17:25:42.657Z,19.15
2018-06-02T17:26:42.633Z,19.34
2018-06-02T17:27:42.591Z,18.57
2018-06-02T17:28:42.565Z,18.08
2018-06-02T17:29:42.537Z,16.64
2018-06-02T17:30:42.505Z,14.81
2018-06-02T17:31:42.474Z,17.90
2018-06-02T17:32:42.444Z,17.80
2018-06-02T17:33:42.409Z,16.36
2018-06-02T17:34:42.380Z,16.36
2018-06-02T17:35:42.355Z,14.72
2018-06-02T17:36:42.319Z,15.97
2018-06-02T17:37:42.291Z,15.88
2018-06-02T17:38:42.260Z,18.28
2018-06-02T17:39:42.229Z,17.80
2018-06-02T17:40:42.197Z,18.66
2018-06-02T17:41:42.163Z,18.86
2018-06-02T17:42:42.135Z,16.17
2018-06-02T17:43:42.108Z,18.76
2018-06-02T17:44:42.071Z,19.35
2018-06-02T17:45:42.042Z,19.54
2018-06-02T17:46:42.008Z,17.32
2018-06-02T17:47:41.977Z,17.41
2018-06-02T17:48:41.947Z,17.61
2018-06-02T17:49:41.919Z,17.22
2018-06-02T17:50:41.890Z,16.36
2018-06-02T17:51:41.860Z,15.78
2018-06-02T17:52:41.827Z,15.88
2018-06-02T17:53:41.792Z,20.88
2018-06-02T17:54:41.761Z,19.53
2018-06-02T17:55:41.730Z,16.93
2018-06-02T17:56:41.706Z,16.83
2018-06-02T17:57:41.672Z,16.93
2018-06-02T17:58:41.645Z,19.53
2018-06-02T17:59:41.607Z,20.68
2018-06-02T18:00:41.578Z,22.03
2018-06-02T18:01:41.547Z,25.11
2018-06-02T18:02:41.519Z,23.47
2018-06-02T18:03:41.492Z,22.90
2018-06-02T18:04:41.462Z,21.94
2018-06-02T18:05:41.423Z,23.19
2018-06-02T18:06:41.390Z,22.52
2018-06-02T18:07:41.362Z,20.78
2018-06-02T18:08:41.381Z,19.05
2018-06-02T18:09:41.302Z,20.88
2018-06-02T18:10:41.275Z,18.48
2018-06-02T18:11:41.240Z,21.75
2018-06-02T18:12:41.209Z,20.50
2018-06-02T18:13:41.173Z,19.43
2018-06-02T18:14:41.144Z,19.34
2018-06-02T18:15:41.120Z,20.40
2018-06-02T18:16:41.085Z,22.90
2018-06-02T18:17:41.053Z,22.80
2018-06-02T18:18:41.022Z,22.90
2018-06-02T18:19:40.985Z,23.19
2018-06-02T18:20:40.958Z,22.71
2018-06-02T18:21:40.929Z,20.78
2018-06-02T18:22:40.903Z,21.84
2018-06-02T18:23:40.870Z,20.97
2018-06-02T18:24:40.844Z,19.53
2018-06-02T18:25:40.803Z,19.53
2018-06-02T18:26:40.772Z,17.99
2018-06-02T18:27:40.740Z,17.41
2018-06-02T18:28:40.710Z,17.41
2018-06-02T18:29:40.691Z,14.71
2018-06-02T18:30:40.654Z,14.14
2018-06-02T18:31:40.614Z,13.37
2018-06-02T18:32:40.588Z,14.52
2018-06-02T18:33:40.563Z,14.23
2018-06-02T18:34:40.538Z,14.04
2018-06-02T18:35:40.495Z,14.23
2018-06-02T18:36:40.462Z,13.94
2018-06-02T18:37:40.433Z,12.21
2018-06-02T18:38:40.399Z,13.46
2018-06-02T18:39:40.370Z,12.70
2018-06-02T18:40:40.341Z,12.70
2018-06-02T18:41:40.303Z,14.32
2018-06-02T18:42:40.281Z,12.50
2018-06-02T18:43:40.253Z,11.83
2018-06-02T18:44:40.212Z,11.83
2018-06-02T18:45:40.187Z,11.54
2018-06-02T18:46:40.183Z,12.50
2018-06-02T18:47:40.120Z,8.75
2018-06-02T18:48:40.090Z,11.35
2018-06-02T18:49:40.059Z,10.48
2018-06-02T18:50:40.031Z,11.44
2018-06-02T18:51:40.028Z,11.44
2018-06-02T18:52:39.970Z,8.75
2018-06-02T18:53:39.961Z,10.00
2018-06-02T18:54:39.901Z,10.00
2018-06-02T18:55:39.881Z,9.42
2018-06-02T18:56:39.836Z,7.89
2018-06-02T18:57:39.813Z,7.79
2018-06-02T18:58:39.779Z,6.92
2018-06-02T18:59:39.748Z,7.12
2018-06-02T19:00:39.719Z,7.02
2018-06-02T19:01:39.680Z,5.77
2018-06-02T19:02:39.650Z,5.48
2018-06-02T19:03:39.773Z,3.85
2018-06-02T19:04:39.647Z,4.80
2018-06-02T19:05:39.562Z,6.06
2018-06-02T19:06:39.529Z,9.61
2018-06-02T19:07:39.501Z,8.27
2018-06-02T19:08:39.467Z,6.54
2018-06-02T19:09:39.435Z,5.96
2018-06-02T19:10:39.412Z,3.94
2018-06-02T19:11:39.375Z,3.17
2018-06-02T19:12:39.342Z,0.00
2018-06-02T19:13:39.304Z,0.00
2018-06-02T19:14:39.277Z,2.40
2018-06-02T19:15:39.246Z,4.03
2018-06-02T19:16:39.213Z,3.56
2018-06-02T19:17:39.200Z,3.75
2018-06-02T19:18:39.157Z,2.11
2018-06-02T19:19:39.124Z,2.31
2018-06-02T19:20:39.084Z,4.71
2018-06-02T19:21:39.060Z,4.42
2018-06-02T19:22:39.252Z,3.85
2018-06-02T19:23:38.999Z,3.85
2018-06-02T19:24:38.970Z,2.69
2018-06-02T19:25:38.937Z,1.34
2018-06-02T19:26:38.917Z,2.50
2018-06-02T19:27:38.872Z,2.31
2018-06-02T19:28:38.840Z,1.54
2018-06-02T19:29:38.814Z,1.15
2018-06-02T19:30:38.780Z,0.48
2018-06-02T19:31:38.749Z,0.38
2018-06-02T19:32:38.723Z,0.00
2018-06-02T19:33:38.683Z,0.00
2018-06-02T19:34:38.654Z,0.09
2018-06-02T19:35:38.625Z,0.38
2018-06-02T19:36:38.593Z,0.38
2018-06-02T19:37:38.559Z,0.57
2018-06-02T19:38:38.529Z,0.29
2018-06-02T19:39:38.497Z,0.00
2018-06-02T19:40:38.469Z,0.00
2018-06-02T19:41:38.546Z,0.00
2018-06-02T19:42:38.411Z,0.00
2018-06-02T19:43:38.387Z,0.00
2018-06-02T19:44:38.407Z,0.00
2018-06-02T19:45:38.333Z,0.00
2018-06-02T19:46:38.285Z,0.00
2018-06-02T19:47:38.258Z,0.00
2018-06-02T19:48:38.217Z,0.00
2018-06-02T19:49:38.186Z,0.00
2018-06-02T19:50:38.192Z,0.00
2018-06-02T19:51:38.125Z,0.00
2018-06-02T19:52:38.531Z,0.00
2018-06-02T19:53:38.062Z,0.00
2018-06-02T19:54:38.029Z,0.00
2018-06-02T19:55:37.998Z,0.00
2018-06-02T19:56:37.969Z,0.00
2018-06-02T19:57:37.930Z,0.00
2018-06-02T19:58:37.912Z,0.00
2018-06-02T19:59:38.147Z,0.00
2018-06-02T20:00:37.999Z,0.00
2018-06-02T20:01:37.934Z,0.00
2018-06-02T20:02:37.778Z,0.00
2018-06-02T20:03:37.748Z,0.00
2018-06-02T20:04:37.729Z,0.00
2018-06-02T20:05:37.711Z,0.00
2018-06-02T20:06:37.651Z,0.00
2018-06-02T20:07:37.876Z,0.00
2018-06-02T20:09:37.558Z,0.00
2018-06-02T20:10:37.531Z,0.00
2018-06-02T20:11:38.042Z,0.00
2018-06-02T20:12:37.480Z,0.00
2018-06-02T20:13:37.497Z,0.00
2018-06-02T20:14:37.411Z,0.00
2018-06-02T20:15:37.369Z,0.00
2018-06-02T20:16:37.337Z,0.00
2018-06-02T20:17:37.300Z,0.00
2018-06-02T20:18:37.271Z,0.00
2018-06-02T20:19:37.295Z,0.00
2018-06-02T20:20:37.208Z,0.00
2018-06-02T20:21:37.182Z,0.00
2018-06-02T20:22:37.213Z,0.00
2018-06-02T20:23:37.121Z,0.00
2018-06-02T20:24:37.078Z,0.00
2018-06-02T20:25:37.058Z,0.00
2018-06-02T20:26:37.026Z,0.00
2018-06-02T20:27:36.988Z,0.00
2018-06-02T20:28:36.965Z,0.00
2018-06-02T20:29:36.918Z,0.00
2018-06-02T20:30:36.890Z,0.00
2018-06-02T20:31:36.860Z,0.00
2018-06-02T20:32:36.828Z,0.00
2018-06-02T20:33:36.804Z,0.00
2018-06-02T20:34:36.766Z,0.00
2018-06-02T20:35:36.741Z,0.00
2018-06-02T20:36:36.711Z,0.00
2018-06-02T20:37:36.664Z,0.00
2018-06-02T20:38:36.635Z,0.00
2018-06-02T20:39:36.608Z,0.00
2018-06-02T20:40:36.603Z,0.00
2018-06-02T20:41:36.570Z,0.00
2018-06-02T20:42:36.508Z,0.00
2018-06-02T20:43:36.477Z,0.00
2018-06-02T20:44:36.452Z,0.00
2018-06-02T20:45:36.419Z,0.00
2018-06-02T20:46:36.410Z,0.00
2018-06-02T20:47:36.375Z,0.00
2018-06-02T20:48:36.319Z,0.00
2018-06-02T20:49:36.280Z,0.00
2018-06-02T20:50:36.251Z,0.00
2018-06-02T20:51:36.221Z,0.00
2018-06-02T20:52:36.189Z,0.00
2018-06-02T20:53:36.162Z,0.00
2018-06-02T20:54:36.135Z,0.00
2018-06-02T20:55:36.093Z,0.00
2018-06-02T20:56:36.058Z,0.00
2018-06-02T20:57:36.030Z,0.00
2018-06-02T20:58:35.995Z,0.00
2018-06-02T20:59:35.969Z,0.00
2018-06-02T21:00:35.935Z,0.00
2018-06-02T21:01:35.898Z,0.00
2018-06-02T21:02:35.866Z,0.00
2018-06-02T21:03:35.836Z,0.00
2018-06-02T21:04:35.801Z,0.00
2018-06-02T21:05:35.775Z,0.00
2018-06-02T21:06:35.739Z,0.00
2018-06-02T21:07:35.710Z,0.00
2018-06-02T21:08:35.679Z,0.00
2018-06-02T21:09:35.639Z,0.00
2018-06-02T21:10:35.609Z,0.00
2018-06-02T21:11:35.581Z,0.00
2018-06-02T21:12:35.550Z,0.00
2018-06-02T21:13:35.511Z,0.00
2018-06-02T21:14:35.488Z,0.00
2018-06-02T21:15:35.449Z,0.00
2018-06-02T21:16:35.411Z,0.00
2018-06-02T21:17:35.385Z,0.00
2018-06-02T21:18:35.371Z,0.00
2018-06-02T21:19:35.319Z,0.00
2018-06-02T21:20:35.292Z,0.00
2018-06-02T21:21:35.255Z,0.00
2018-06-02T21:22:35.277Z,0.00
2018-06-02T21:23:35.192Z,0.00
2018-06-02T21:24:35.158Z,0.00
2018-06-02T21:25:35.132Z,0.00
2018-06-02T21:26:35.106Z,0.00
2018-06-02T21:27:35.074Z,0.00
2018-06-02T21:28:35.028Z,0.00
2018-06-02T21:29:34.999Z,0.00
2018-06-02T21:30:34.968Z,0.00
2018-06-02T21:31:34.931Z,0.00
2018-06-02T21:32:34.914Z,0.00
2018-06-02T21:33:34.859Z,0.00
2018-06-02T21:34:34.840Z,0.00
2018-06-02T21:35:34.797Z,0.00
2018-06-02T21:36:34.763Z,0.00
2018-06-02T21:37:34.737Z,0.00
2018-06-02T21:38:34.703Z,0.00
2018-06-02T21:39:34.669Z,0.00
2018-06-02T21:40:34.639Z,0.00
2018-06-02T21:41:34.625Z,0.00
2018-06-02T21:42:34.591Z,0.00
2018-06-02T21:43:34.538Z,0.00
2018-06-02T21:44:34.514Z,0.00
2018-06-02T21:45:34.472Z,0.00
2018-06-02T21:46:34.463Z,0.00
2018-06-02T21:47:34.405Z,0.00
2018-06-02T21:48:34.376Z,0.00
2018-06-02T21:49:34.341Z,0.00
2018-06-02T21:50:34.327Z,0.00
2018-06-02T21:51:34.280Z,0.00
2018-06-02T21:52:34.250Z,0.00
2018-06-02T21:53:34.212Z,0.00
2018-06-02T21:54:34.176Z,0.00
2018-06-02T21:55:34.144Z,0.00
2018-06-02T21:56:34.107Z,0.00
2018-06-02T21:57:34.081Z,0.00
2018-06-02T21:58:34.049Z,0.00
2018-06-02T21:59:34.020Z,0.00
2018-06-02T22:00:33.977Z,0.00
2018-06-02T22:14:21.117Z,0.00
2018-06-02T22:15:21.036Z,0.00
2018-06-02T22:16:20.993Z,0.00
2018-06-02T22:17:20.959Z,0.00
2018-06-02T22:18:20.925Z,0.00
2018-06-02T22:19:20.887Z,0.00
2018-06-02T22:20:20.858Z,0.00
2018-06-02T22:21:20.814Z,0.00
2018-06-02T22:22:20.779Z,0.00
2018-06-02T22:23:20.746Z,0.00
2018-06-02T22:24:20.714Z,0.00
2018-06-02T22:25:20.679Z,0.00
2018-06-02T22:26:20.652Z,0.00
2018-06-02T22:27:20.604Z,0.00
2018-06-02T22:28:20.568Z,0.00
2018-06-02T22:29:20.536Z,0.00
2018-06-02T22:30:20.501Z,0.00
2018-06-02T22:31:20.471Z,0.00
2018-06-02T22:32:20.436Z,0.00
2018-06-02T22:33:20.413Z,0.00
2018-06-02T22:34:20.369Z,0.00
2018-06-02T22:35:20.331Z,0.00
2018-06-02T22:36:20.300Z,0.00
2018-06-02T22:37:20.267Z,0.00
2018-06-02T22:38:20.243Z,0.00
2018-06-02T22:39:20.195Z,0.00
2018-06-02T22:40:20.163Z,0.00
2018-06-02T22:41:20.128Z,0.00
2018-06-02T22:42:20.102Z,0.00
2018-06-02T22:43:20.068Z,0.00
2018-06-02T22:44:20.030Z,0.00
2018-06-02T22:45:20.007Z,0.00
2018-06-02T22:46:20.016Z,0.00
2018-06-02T22:47:19.923Z,0.00
2018-06-02T22:48:19.894Z,0.00
2018-06-02T22:49:19.864Z,0.00
2018-06-02T22:50:19.823Z,0.00
2018-06-02T22:51:19.796Z,0.00
2018-06-02T22:52:19.762Z,0.00
2018-06-02T22:53:19.725Z,0.00
2018-06-02T22:54:19.689Z,0.00
2018-06-02T22:55:19.668Z,0.00
2018-06-02T22:56:19.631Z,0.00
2018-06-02T22:57:19.597Z,0.00
2018-06-02T22:58:19.568Z,0.00
2018-06-02T22:59:19.526Z,0.00
2018-06-02T23:00:19.509Z,0.00
2018-06-02T23:01:19.461Z,0.00
2018-06-02T23:02:19.431Z,0.00
2018-06-02T23:03:19.408Z,0.00
2018-06-02T23:04:19.368Z,0.00
2018-06-02T23:05:19.329Z,0.00
2018-06-02T23:06:19.301Z,0.00
2018-06-02T23:07:19.260Z,0.00
2018-06-02T23:08:19.230Z,0.00
2018-06-02T23:09:19.203Z,0.00
2018-06-02T23:10:19.173Z,0.00
2018-06-02T23:11:19.127Z,0.00
2018-06-02T23:12:19.095Z,0.00
2018-06-02T23:13:19.061Z,0.00
2018-06-02T23:14:19.027Z,0.00
2018-06-02T23:15:18.998Z,0.00
2018-06-02T23:16:18.963Z,0.00
2018-06-02T23:17:18.933Z,0.00
2018-06-02T23:18:18.901Z,0.00
2018-06-02T23:19:18.864Z,0.00
2018-06-02T23:20:18.829Z,0.00
2018-06-02T23:21:18.795Z,0.00
2018-06-02T23:22:18.761Z,0.00
2018-06-02T23:23:18.729Z,0.00
2018-06-02T23:24:18.696Z,0.00
2018-06-02T23:25:18.662Z,0.00
2018-06-02T23:26:18.624Z,0.00
2018-06-02T23:27:18.597Z,0.00
2018-06-02T23:28:18.562Z,0.00
2018-06-02T23:29:18.533Z,0.00
2018-06-02T23:30:18.500Z,0.00
2018-06-02T23:31:18.457Z,0.00
2018-06-02T23:32:18.427Z,0.00
2018-06-02T23:33:18.397Z,0.00
2018-06-02T23:34:18.357Z,0.00
2018-06-02T23:35:18.332Z,0.00
2018-06-02T23:36:18.296Z,0.00
2018-06-02T23:37:18.264Z,0.00
2018-06-02T23:38:18.276Z,0.00
2018-06-02T23:39:18.191Z,0.00
2018-06-02T23:40:18.160Z,0.00
2018-06-02T23:41:18.130Z,0.00
2018-06-02T23:42:18.096Z,0.00
2018-06-02T23:43:18.056Z,0.00
2018-06-02T23:44:18.026Z,0.00
2018-06-02T23:45:17.991Z,0.00
2018-06-02T23:46:17.958Z,0.00
2018-06-02T23:47:17.929Z,0.00
2018-06-02T23:48:17.893Z,0.00
2018-06-02T23:49:17.861Z,0.00
2018-06-02T23:50:17.830Z,0.00
2018-06-02T23:51:17.797Z,0.00
2018-06-02T23:52:17.766Z,0.00
2018-06-02T23:53:17.726Z,0.00
2018-06-02T23:54:17.690Z,0.00
2018-06-02T23:55:17.662Z,0.00
2018-06-02T23:56:17.632Z,0.00
2018-06-02T23:57:17.597Z,0.00
2018-06-02T23:58:17.557Z,0.00
2018-06-02T23:59:17.529Z,0.00
